Terminal Aerodrome Forecast
Issued by NWS

Home | Current Version | Previous Version | Text Only | Print | Product List | Glossary On
Versions: 1 2 3 4 5 6 7 8 9 10 11 12 13 14 15 16
857
FTUS43 KOAX 212320
TAFSNY
TAF
KSNY 212320Z 2200/2224 16012KT P6SM FEW060
     FM220900 16008KT P6SM BKN060 BKN120
     FM221100 16010KT P6SM BKN025 OVC050
     FM221400 16012KT 3SM -SN BR OVC020
     FM222100 21006KT P6SM OVC025=

USA.gov is the U.S. government's official web portal to all federal, state and local government web resources and services.